sensor_id;sensor_type;location;lat;lon;timestamp;P1;durP1;ratioP1;P2;durP2;ratioP2
24161;SDS011;12318;51.262;7.066;2023-04-25T00:02:09;21.30;;;7.40;;
24161;SDS011;12318;51.262;7.066;2023-04-25T00:04:35;25.48;;;7.00;;
24161;SDS011;12318;51.262;7.066;2023-04-25T00:07:05;17.73;;;6.53;;
24161;SDS011;12318;51.262;7.066;2023-04-25T00:09:31;21.67;;;6.88;;
24161;SDS011;12318;51.262;7.066;2023-04-25T00:11:57;18.05;;;6.55;;
24161;SDS011;12318;51.262;7.066;2023-04-25T00:14:23;21.23;;;5.93;;
24161;SDS011;12318;51.262;7.066;2023-04-25T00:16:50;18.67;;;5.97;;
24161;SDS011;12318;51.262;7.066;2023-04-25T00:19:16;21.83;;;6.50;;
24161;SDS011;12318;51.262;7.066;2023-04-25T00:21:42;25.75;;;7.45;;
24161;SDS011;12318;51.262;7.066;2023-04-25T00:24:12;21.90;;;6.40;;
24161;SDS011;12318;51.262;7.066;2023-04-25T00:26:40;20.83;;;5.55;;
24161;SDS011;12318;51.262;7.066;2023-04-25T00:29:09;22.98;;;6.78;;
24161;SDS011;12318;51.262;7.066;2023-04-25T00:31:34;18.80;;;6.70;;
24161;SDS011;12318;51.262;7.066;2023-04-25T00:34:01;24.73;;;5.65;;
24161;SDS011;12318;51.262;7.066;2023-04-25T00:36:27;22.58;;;6.57;;
24161;SDS011;12318;51.262;7.066;2023-04-25T00:38:53;16.38;;;6.20;;
24161;SDS011;12318;51.262;7.066;2023-04-25T00:41:20;22.50;;;7.10;;
24161;SDS011;12318;51.262;7.066;2023-04-25T00:43:46;20.92;;;7.25;;
24161;SDS011;12318;51.262;7.066;2023-04-25T00:46:13;24.42;;;6.72;;
24161;SDS011;12318;51.262;7.066;2023-04-25T00:48:38;19.70;;;6.50;;
24161;SDS011;12318;51.262;7.066;2023-04-25T00:51:04;19.23;;;6.68;;
24161;SDS011;12318;51.262;7.066;2023-04-25T00:53:31;21.50;;;6.13;;
24161;SDS011;12318;51.262;7.066;2023-04-25T00:55:57;21.67;;;6.25;;
24161;SDS011;12318;51.262;7.066;2023-04-25T00:58:24;18.58;;;5.97;;
24161;SDS011;12318;51.262;7.066;2023-04-25T01:00:50;23.42;;;6.53;;
24161;SDS011;12318;51.262;7.066;2023-04-25T01:03:19;21.13;;;6.05;;
24161;SDS011;12318;51.262;7.066;2023-04-25T01:05:46;16.88;;;6.40;;
24161;SDS011;12318;51.262;7.066;2023-04-25T01:08:12;23.27;;;6.90;;
24161;SDS011;12318;51.262;7.066;2023-04-25T01:10:39;20.38;;;6.40;;
24161;SDS011;12318;51.262;7.066;2023-04-25T01:13:06;17.27;;;6.25;;
24161;SDS011;12318;51.262;7.066;2023-04-25T01:15:33;19.48;;;6.07;;
24161;SDS011;12318;51.262;7.066;2023-04-25T01:18:02;28.88;;;6.38;;
24161;SDS011;12318;51.262;7.066;2023-04-25T01:20:29;16.40;;;5.25;;
24161;SDS011;12318;51.262;7.066;2023-04-25T01:22:57;16.05;;;5.75;;
24161;SDS011;12318;51.262;7.066;2023-04-25T01:25:22;13.63;;;5.72;;
24161;SDS011;12318;51.262;7.066;2023-04-25T01:27:48;18.60;;;6.20;;
24161;SDS011;12318;51.262;7.066;2023-04-25T01:30:14;23.48;;;6.13;;
24161;SDS011;12318;51.262;7.066;2023-04-25T01:32:41;20.55;;;6.93;;
24161;SDS011;12318;51.262;7.066;2023-04-25T01:35:11;20.02;;;6.05;;
24161;SDS011;12318;51.262;7.066;2023-04-25T01:37:37;20.45;;;6.40;;
24161;SDS011;12318;51.262;7.066;2023-04-25T01:40:04;20.55;;;6.10;;
24161;SDS011;12318;51.262;7.066;2023-04-25T01:42:32;17.40;;;5.70;;
24161;SDS011;12318;51.262;7.066;2023-04-25T01:44:58;16.77;;;6.18;;
24161;SDS011;12318;51.262;7.066;2023-04-25T01:47:24;18.77;;;6.40;;
24161;SDS011;12318;51.262;7.066;2023-04-25T01:49:50;18.83;;;5.72;;
24161;SDS011;12318;51.262;7.066;2023-04-25T01:52:16;15.10;;;6.28;;
24161;SDS011;12318;51.262;7.066;2023-04-25T01:54:42;20.92;;;6.72;;
24161;SDS011;12318;51.262;7.066;2023-04-25T01:57:12;20.67;;;6.78;;
24161;SDS011;12318;51.262;7.066;2023-04-25T01:59:38;18.52;;;6.15;;
24161;SDS011;12318;51.262;7.066;2023-04-25T02:02:05;16.35;;;6.90;;
24161;SDS011;12318;51.262;7.066;2023-04-25T02:04:31;15.90;;;6.18;;
24161;SDS011;12318;51.262;7.066;2023-04-25T02:06:57;20.17;;;6.45;;
24161;SDS011;12318;51.262;7.066;2023-04-25T02:09:23;14.23;;;6.53;;
24161;SDS011;12318;51.262;7.066;2023-04-25T02:11:49;19.95;;;6.65;;
24161;SDS011;12318;51.262;7.066;2023-04-25T02:14:15;18.77;;;6.75;;
24161;SDS011;12318;51.262;7.066;2023-04-25T02:16:41;22.90;;;7.95;;
24161;SDS011;12318;51.262;7.066;2023-04-25T02:19:08;19.67;;;7.47;;
24161;SDS011;12318;51.262;7.066;2023-04-25T02:21:35;26.25;;;8.52;;
24161;SDS011;12318;51.262;7.066;2023-04-25T02:24:02;20.88;;;7.93;;
24161;SDS011;12318;51.262;7.066;2023-04-25T02:26:28;19.15;;;8.18;;
24161;SDS011;12318;51.262;7.066;2023-04-25T02:28:55;16.10;;;7.55;;
24161;SDS011;12318;51.262;7.066;2023-04-25T02:31:22;23.15;;;8.38;;
24161;SDS011;12318;51.262;7.066;2023-04-25T02:33:48;20.48;;;8.73;;
24161;SDS011;12318;51.262;7.066;2023-04-25T02:36:14;20.60;;;8.88;;
24161;SDS011;12318;51.262;7.066;2023-04-25T02:38:40;22.15;;;9.27;;
24161;SDS011;12318;51.262;7.066;2023-04-25T02:41:05;19.23;;;8.95;;
24161;SDS011;12318;51.262;7.066;2023-04-25T02:43:32;27.67;;;9.60;;
24161;SDS011;12318;51.262;7.066;2023-04-25T02:45:58;26.77;;;9.25;;
24161;SDS011;12318;51.262;7.066;2023-04-25T02:48:24;29.40;;;9.20;;
24161;SDS011;12318;51.262;7.066;2023-04-25T02:50:49;23.33;;;10.10;;
24161;SDS011;12318;51.262;7.066;2023-04-25T02:53:15;20.33;;;8.93;;
24161;SDS011;12318;51.262;7.066;2023-04-25T02:55:41;20.13;;;10.15;;
24161;SDS011;12318;51.262;7.066;2023-04-25T02:58:07;21.60;;;9.70;;
24161;SDS011;12318;51.262;7.066;2023-04-25T03:00:33;25.02;;;10.13;;
24161;SDS011;12318;51.262;7.066;2023-04-25T03:02:58;25.35;;;9.30;;
24161;SDS011;12318;51.262;7.066;2023-04-25T03:05:25;26.83;;;9.60;;
24161;SDS011;12318;51.262;7.066;2023-04-25T03:07:50;19.38;;;9.50;;
24161;SDS011;12318;51.262;7.066;2023-04-25T03:10:16;21.65;;;9.30;;
24161;SDS011;12318;51.262;7.066;2023-04-25T03:12:42;25.67;;;9.48;;
24161;SDS011;12318;51.262;7.066;2023-04-25T03:15:08;31.20;;;10.57;;
24161;SDS011;12318;51.262;7.066;2023-04-25T03:17:34;23.92;;;9.55;;
24161;SDS011;12318;51.262;7.066;2023-04-25T03:20:00;26.27;;;9.43;;
24161;SDS011;12318;51.262;7.066;2023-04-25T03:22:26;20.38;;;9.52;;
24161;SDS011;12318;51.262;7.066;2023-04-25T03:24:52;24.65;;;8.50;;
24161;SDS011;12318;51.262;7.066;2023-04-25T03:27:18;22.40;;;10.07;;
24161;SDS011;12318;51.262;7.066;2023-04-25T03:29:43;26.00;;;10.88;;
24161;SDS011;12318;51.262;7.066;2023-04-25T03:32:09;25.55;;;11.65;;
24161;SDS011;12318;51.262;7.066;2023-04-25T03:34:35;30.88;;;11.65;;
24161;SDS011;12318;51.262;7.066;2023-04-25T03:37:01;28.98;;;11.48;;
24161;SDS011;12318;51.262;7.066;2023-04-25T03:39:26;24.85;;;11.40;;
24161;SDS011;12318;51.262;7.066;2023-04-25T03:41:52;27.30;;;11.70;;
24161;SDS011;12318;51.262;7.066;2023-04-25T03:44:18;25.85;;;12.40;;
24161;SDS011;12318;51.262;7.066;2023-04-25T03:46:44;30.08;;;11.98;;
24161;SDS011;12318;51.262;7.066;2023-04-25T03:49:09;32.30;;;12.70;;
24161;SDS011;12318;51.262;7.066;2023-04-25T03:51:35;30.73;;;12.93;;
24161;SDS011;12318;51.262;7.066;2023-04-25T03:54:01;28.80;;;12.35;;
24161;SDS011;12318;51.262;7.066;2023-04-25T03:56:27;34.88;;;12.98;;
24161;SDS011;12318;51.262;7.066;2023-04-25T03:58:52;36.65;;;13.00;;
24161;SDS011;12318;51.262;7.066;2023-04-25T04:01:18;35.63;;;13.20;;
24161;SDS011;12318;51.262;7.066;2023-04-25T04:03:44;32.35;;;11.90;;
24161;SDS011;12318;51.262;7.066;2023-04-25T04:06:10;40.65;;;13.38;;
24161;SDS011;12318;51.262;7.066;2023-04-25T04:08:36;27.80;;;10.90;;
24161;SDS011;12318;51.262;7.066;2023-04-25T04:11:01;28.45;;;11.05;;
24161;SDS011;12318;51.262;7.066;2023-04-25T04:13:28;41.22;;;11.18;;
24161;SDS011;12318;51.262;7.066;2023-04-25T04:15:55;24.45;;;10.80;;
24161;SDS011;12318;51.262;7.066;2023-04-25T04:18:21;34.83;;;10.25;;
24161;SDS011;12318;51.262;7.066;2023-04-25T04:20:47;26.20;;;9.80;;
24161;SDS011;12318;51.262;7.066;2023-04-25T04:23:13;27.25;;;10.00;;
24161;SDS011;12318;51.262;7.066;2023-04-25T04:25:39;34.35;;;10.38;;
24161;SDS011;12318;51.262;7.066;2023-04-25T04:28:05;32.55;;;9.77;;
24161;SDS011;12318;51.262;7.066;2023-04-25T04:30:32;31.45;;;9.10;;
24161;SDS011;12318;51.262;7.066;2023-04-25T04:33:01;26.17;;;9.57;;
24161;SDS011;12318;51.262;7.066;2023-04-25T04:35:27;26.13;;;10.23;;
24161;SDS011;12318;51.262;7.066;2023-04-25T04:37:53;34.75;;;11.13;;
24161;SDS011;12318;51.262;7.066;2023-04-25T04:40:19;40.40;;;11.90;;
24161;SDS011;12318;51.262;7.066;2023-04-25T04:42:47;41.80;;;12.65;;
24161;SDS011;12318;51.262;7.066;2023-04-25T04:45:13;35.05;;;11.50;;
24161;SDS011;12318;51.262;7.066;2023-04-25T04:47:39;40.42;;;11.32;;
24161;SDS011;12318;51.262;7.066;2023-04-25T04:50:08;38.45;;;11.18;;
24161;SDS011;12318;51.262;7.066;2023-04-25T04:52:38;37.95;;;11.38;;
24161;SDS011;12318;51.262;7.066;2023-04-25T04:55:04;38.75;;;10.95;;
24161;SDS011;12318;51.262;7.066;2023-04-25T04:57:30;37.13;;;11.98;;
24161;SDS011;12318;51.262;7.066;2023-04-25T04:59:58;36.33;;;11.10;;
24161;SDS011;12318;51.262;7.066;2023-04-25T05:02:24;34.38;;;10.23;;
24161;SDS011;12318;51.262;7.066;2023-04-25T05:04:50;36.25;;;10.30;;
24161;SDS011;12318;51.262;7.066;2023-04-25T05:07:17;37.85;;;11.18;;
24161;SDS011;12318;51.262;7.066;2023-04-25T05:09:43;34.45;;;9.90;;
24161;SDS011;12318;51.262;7.066;2023-04-25T05:12:09;31.75;;;9.98;;
24161;SDS011;12318;51.262;7.066;2023-04-25T05:14:35;38.13;;;11.23;;
24161;SDS011;12318;51.262;7.066;2023-04-25T05:17:01;38.42;;;9.80;;
24161;SDS011;12318;51.262;7.066;2023-04-25T05:19:29;34.30;;;11.02;;
24161;SDS011;12318;51.262;7.066;2023-04-25T05:21:55;33.35;;;11.50;;
24161;SDS011;12318;51.262;7.066;2023-04-25T05:24:21;30.08;;;10.07;;
24161;SDS011;12318;51.262;7.066;2023-04-25T05:26:47;37.47;;;11.27;;
24161;SDS011;12318;51.262;7.066;2023-04-25T05:29:12;39.15;;;10.32;;
24161;SDS011;12318;51.262;7.066;2023-04-25T05:31:38;38.47;;;11.00;;
24161;SDS011;12318;51.262;7.066;2023-04-25T05:34:04;37.40;;;11.32;;
24161;SDS011;12318;51.262;7.066;2023-04-25T05:36:30;27.38;;;10.25;;
24161;SDS011;12318;51.262;7.066;2023-04-25T05:38:57;43.45;;;12.45;;
24161;SDS011;12318;51.262;7.066;2023-04-25T05:41:23;30.90;;;10.77;;
24161;SDS011;12318;51.262;7.066;2023-04-25T05:43:49;31.40;;;10.90;;
24161;SDS011;12318;51.262;7.066;2023-04-25T05:46:15;42.00;;;10.73;;
24161;SDS011;12318;51.262;7.066;2023-04-25T05:48:44;34.20;;;10.70;;
24161;SDS011;12318;51.262;7.066;2023-04-25T05:51:10;39.53;;;11.13;;
24161;SDS011;12318;51.262;7.066;2023-04-25T05:53:36;30.88;;;10.88;;
24161;SDS011;12318;51.262;7.066;2023-04-25T05:56:02;36.10;;;11.00;;
24161;SDS011;12318;51.262;7.066;2023-04-25T05:58:28;33.38;;;11.35;;
24161;SDS011;12318;51.262;7.066;2023-04-25T06:00:56;40.33;;;12.15;;
24161;SDS011;12318;51.262;7.066;2023-04-25T06:03:23;38.40;;;9.90;;
24161;SDS011;12318;51.262;7.066;2023-04-25T06:05:56;33.88;;;10.27;;
24161;SDS011;12318;51.262;7.066;2023-04-25T06:08:22;34.03;;;10.57;;
24161;SDS011;12318;51.262;7.066;2023-04-25T06:11:11;27.83;;;9.38;;
24161;SDS011;12318;51.262;7.066;2023-04-25T06:17:04;35.58;;;9.10;;
24161;SDS011;12318;51.262;7.066;2023-04-25T06:19:35;36.67;;;10.07;;
24161;SDS011;12318;51.262;7.066;2023-04-25T06:22:04;33.88;;;9.75;;
24161;SDS011;12318;51.262;7.066;2023-04-25T06:24:42;29.63;;;8.02;;
24161;SDS011;12318;51.262;7.066;2023-04-25T06:27:11;31.67;;;9.20;;
24161;SDS011;12318;51.262;7.066;2023-04-25T06:29:39;26.27;;;8.93;;
24161;SDS011;12318;51.262;7.066;2023-04-25T06:32:05;34.15;;;9.18;;
24161;SDS011;12318;51.262;7.066;2023-04-25T06:34:33;28.02;;;8.00;;
24161;SDS011;12318;51.262;7.066;2023-04-25T06:37:01;29.02;;;9.15;;
24161;SDS011;12318;51.262;7.066;2023-04-25T06:39:39;31.77;;;9.50;;
24161;SDS011;12318;51.262;7.066;2023-04-25T06:46:18;28.23;;;8.80;;
24161;SDS011;12318;51.262;7.066;2023-04-25T06:48:46;20.75;;;7.50;;
24161;SDS011;12318;51.262;7.066;2023-04-25T06:51:17;33.33;;;8.20;;
24161;SDS011;12318;51.262;7.066;2023-04-25T06:54:05;21.33;;;7.90;;
24161;SDS011;12318;51.262;7.066;2023-04-25T07:00:31;26.73;;;9.75;;
24161;SDS011;12318;51.262;7.066;2023-04-25T07:02:58;25.60;;;9.85;;
24161;SDS011;12318;51.262;7.066;2023-04-25T07:05:57;24.27;;;9.88;;
24161;SDS011;12318;51.262;7.066;2023-04-25T07:11:53;32.58;;;11.43;;
24161;SDS011;12318;51.262;7.066;2023-04-25T07:14:27;32.20;;;11.57;;
24161;SDS011;12318;51.262;7.066;2023-04-25T07:21:45;29.30;;;8.48;;
24161;SDS011;12318;51.262;7.066;2023-04-25T07:24:31;22.02;;;8.60;;
24161;SDS011;12318;51.262;7.066;2023-04-25T07:36:15;24.05;;;8.20;;
24161;SDS011;12318;51.262;7.066;2023-04-25T07:38:40;24.90;;;7.45;;
24161;SDS011;12318;51.262;7.066;2023-04-25T07:41:06;25.20;;;5.78;;
24161;SDS011;12318;51.262;7.066;2023-04-25T07:43:32;29.60;;;6.45;;
24161;SDS011;12318;51.262;7.066;2023-04-25T07:45:58;20.40;;;5.82;;
24161;SDS011;12318;51.262;7.066;2023-04-25T07:52:00;25.65;;;5.60;;
24161;SDS011;12318;51.262;7.066;2023-04-25T07:54:28;22.27;;;6.32;;
24161;SDS011;12318;51.262;7.066;2023-04-25T07:57:05;21.27;;;5.15;;
24161;SDS011;12318;51.262;7.066;2023-04-25T07:59:56;23.48;;;5.68;;
24161;SDS011;12318;51.262;7.066;2023-04-25T08:02:27;20.02;;;5.72;;
24161;SDS011;12318;51.262;7.066;2023-04-25T08:05:07;22.10;;;5.35;;
24161;SDS011;12318;51.262;7.066;2023-04-25T08:07:46;17.48;;;5.45;;
24161;SDS011;12318;51.262;7.066;2023-04-25T08:10:12;15.70;;;5.55;;
24161;SDS011;12318;51.262;7.066;2023-04-25T08:12:57;21.08;;;6.55;;
24161;SDS011;12318;51.262;7.066;2023-04-25T08:15:22;20.33;;;6.07;;
24161;SDS011;12318;51.262;7.066;2023-04-25T08:18:02;18.63;;;5.63;;
24161;SDS011;12318;51.262;7.066;2023-04-25T08:20:41;14.57;;;4.47;;
24161;SDS011;12318;51.262;7.066;2023-04-25T08:23:45;19.48;;;5.63;;
24161;SDS011;12318;51.262;7.066;2023-04-25T08:28:59;13.95;;;4.78;;
24161;SDS011;12318;51.262;7.066;2023-04-25T08:31:31;10.32;;;3.50;;
24161;SDS011;12318;51.262;7.066;2023-04-25T08:34:03;18.67;;;4.13;;
24161;SDS011;12318;51.262;7.066;2023-04-25T08:36:48;16.00;;;3.60;;
24161;SDS011;12318;51.262;7.066;2023-04-25T08:39:40;11.02;;;3.38;;
24161;SDS011;12318;51.262;7.066;2023-04-25T08:42:37;17.42;;;3.03;;
24161;SDS011;12318;51.262;7.066;2023-04-25T08:45:16;11.15;;;2.28;;
24161;SDS011;12318;51.262;7.066;2023-04-25T08:47:53;10.60;;;2.60;;
24161;SDS011;12318;51.262;7.066;2023-04-25T08:50:35;11.55;;;3.42;;
24161;SDS011;12318;51.262;7.066;2023-04-25T08:53:18;15.57;;;3.20;;
24161;SDS011;12318;51.262;7.066;2023-04-25T08:56:25;17.45;;;3.15;;
24161;SDS011;12318;51.262;7.066;2023-04-25T08:59:12;18.77;;;3.10;;
24161;SDS011;12318;51.262;7.066;2023-04-25T09:02:05;15.80;;;3.03;;
24161;SDS011;12318;51.262;7.066;2023-04-25T09:07:49;12.77;;;2.72;;
24161;SDS011;12318;51.262;7.066;2023-04-25T09:10:28;11.52;;;2.83;;
24161;SDS011;12318;51.262;7.066;2023-04-25T09:23:03;11.20;;;2.95;;
24161;SDS011;12318;51.262;7.066;2023-04-25T09:25:51;12.20;;;2.75;;
24161;SDS011;12318;51.262;7.066;2023-04-25T09:31:27;12.10;;;2.80;;
24161;SDS011;12318;51.262;7.066;2023-04-25T09:40:33;10.27;;;2.72;;
24161;SDS011;12318;51.262;7.066;2023-04-25T09:42:59;13.50;;;2.65;;
24161;SDS011;12318;51.262;7.066;2023-04-25T09:48:22;14.20;;;2.80;;
24161;SDS011;12318;51.262;7.066;2023-04-25T09:51:09;9.25;;;2.03;;
24161;SDS011;12318;51.262;7.066;2023-04-25T09:53:51;12.95;;;2.72;;
24161;SDS011;12318;51.262;7.066;2023-04-25T09:56:34;13.65;;;2.80;;
24161;SDS011;12318;51.262;7.066;2023-04-25T09:59:02;14.13;;;3.13;;
24161;SDS011;12318;51.262;7.066;2023-04-25T10:01:32;12.30;;;3.17;;
24161;SDS011;12318;51.262;7.066;2023-04-25T10:04:03;13.95;;;3.05;;
24161;SDS011;12318;51.262;7.066;2023-04-25T10:06:37;12.52;;;2.25;;
24161;SDS011;12318;51.262;7.066;2023-04-25T10:09:03;8.85;;;2.50;;
24161;SDS011;12318;51.262;7.066;2023-04-25T10:11:32;9.30;;;2.33;;
24161;SDS011;12318;51.262;7.066;2023-04-25T10:13:59;9.45;;;2.00;;
24161;SDS011;12318;51.262;7.066;2023-04-25T10:16:25;6.78;;;1.65;;
24161;SDS011;12318;51.262;7.066;2023-04-25T10:18:52;9.13;;;2.08;;
24161;SDS011;12318;51.262;7.066;2023-04-25T10:21:18;7.75;;;1.92;;
24161;SDS011;12318;51.262;7.066;2023-04-25T10:23:45;8.60;;;2.00;;
24161;SDS011;12318;51.262;7.066;2023-04-25T10:26:12;9.50;;;2.10;;
24161;SDS011;12318;51.262;7.066;2023-04-25T10:29:01;20.02;;;2.97;;
24161;SDS011;12318;51.262;7.066;2023-04-25T10:31:26;13.27;;;2.80;;
24161;SDS011;12318;51.262;7.066;2023-04-25T10:33:52;6.43;;;2.13;;
24161;SDS011;12318;51.262;7.066;2023-04-25T10:36:19;10.45;;;1.90;;
24161;SDS011;12318;51.262;7.066;2023-04-25T10:38:47;12.38;;;2.58;;
24161;SDS011;12318;51.262;7.066;2023-04-25T10:41:17;9.77;;;2.33;;
24161;SDS011;12318;51.262;7.066;2023-04-25T10:43:58;14.23;;;2.25;;
24161;SDS011;12318;51.262;7.066;2023-04-25T10:49:11;4.97;;;1.77;;
24161;SDS011;12318;51.262;7.066;2023-04-25T10:54:56;12.05;;;2.40;;
24161;SDS011;12318;51.262;7.066;2023-04-25T10:57:36;13.32;;;2.45;;
24161;SDS011;12318;51.262;7.066;2023-04-25T11:00:24;11.80;;;2.88;;
24161;SDS011;12318;51.262;7.066;2023-04-25T11:03:09;8.43;;;1.65;;
24161;SDS011;12318;51.262;7.066;2023-04-25T11:05:54;9.57;;;1.90;;
24161;SDS011;12318;51.262;7.066;2023-04-25T11:08:42;8.88;;;1.73;;
24161;SDS011;12318;51.262;7.066;2023-04-25T11:11:18;7.45;;;1.70;;
24161;SDS011;12318;51.262;7.066;2023-04-25T11:13:48;9.10;;;2.35;;
24161;SDS011;12318;51.262;7.066;2023-04-25T11:16:15;8.90;;;1.98;;
24161;SDS011;12318;51.262;7.066;2023-04-25T11:18:44;6.75;;;1.70;;
24161;SDS011;12318;51.262;7.066;2023-04-25T11:21:11;5.50;;;1.70;;
24161;SDS011;12318;51.262;7.066;2023-04-25T11:23:37;5.40;;;1.40;;
24161;SDS011;12318;51.262;7.066;2023-04-25T11:26:03;7.40;;;1.95;;
24161;SDS011;12318;51.262;7.066;2023-04-25T11:28:29;5.38;;;1.45;;
24161;SDS011;12318;51.262;7.066;2023-04-25T11:30:55;7.05;;;1.70;;
24161;SDS011;12318;51.262;7.066;2023-04-25T11:33:25;7.25;;;1.65;;
24161;SDS011;12318;51.262;7.066;2023-04-25T11:35:55;7.65;;;1.95;;
24161;SDS011;12318;51.262;7.066;2023-04-25T11:38:24;5.43;;;1.60;;
24161;SDS011;12318;51.262;7.066;2023-04-25T11:40:53;9.73;;;1.90;;
24161;SDS011;12318;51.262;7.066;2023-04-25T11:43:20;6.70;;;1.90;;
24161;SDS011;12318;51.262;7.066;2023-04-25T11:45:49;8.88;;;2.17;;
24161;SDS011;12318;51.262;7.066;2023-04-25T11:48:16;6.47;;;2.10;;
24161;SDS011;12318;51.262;7.066;2023-04-25T11:50:45;10.02;;;2.53;;
24161;SDS011;12318;51.262;7.066;2023-04-25T11:53:11;11.35;;;2.08;;
24161;SDS011;12318;51.262;7.066;2023-04-25T11:55:37;8.13;;;1.85;;
24161;SDS011;12318;51.262;7.066;2023-04-25T11:58:03;9.73;;;2.15;;
24161;SDS011;12318;51.262;7.066;2023-04-25T12:00:30;8.57;;;2.38;;
24161;SDS011;12318;51.262;7.066;2023-04-25T12:02:57;9.73;;;2.15;;
24161;SDS011;12318;51.262;7.066;2023-04-25T12:05:24;11.82;;;2.20;;
24161;SDS011;12318;51.262;7.066;2023-04-25T12:07:51;8.05;;;2.03;;
24161;SDS011;12318;51.262;7.066;2023-04-25T12:10:18;9.27;;;2.30;;
24161;SDS011;12318;51.262;7.066;2023-04-25T12:12:47;9.00;;;2.25;;
24161;SDS011;12318;51.262;7.066;2023-04-25T12:15:14;9.35;;;1.98;;
24161;SDS011;12318;51.262;7.066;2023-04-25T12:17:51;6.63;;;1.77;;
24161;SDS011;12318;51.262;7.066;2023-04-25T12:20:18;5.18;;;1.85;;
24161;SDS011;12318;51.262;7.066;2023-04-25T12:22:46;8.52;;;1.77;;
24161;SDS011;12318;51.262;7.066;2023-04-25T12:25:13;12.00;;;2.20;;
24161;SDS011;12318;51.262;7.066;2023-04-25T12:28:12;11.02;;;2.10;;
24161;SDS011;12318;51.262;7.066;2023-04-25T12:33:34;17.40;;;2.72;;
24161;SDS011;12318;51.262;7.066;2023-04-25T12:36:01;12.30;;;2.55;;
24161;SDS011;12318;51.262;7.066;2023-04-25T12:38:36;9.50;;;2.40;;
24161;SDS011;12318;51.262;7.066;2023-04-25T12:41:03;9.88;;;2.50;;
24161;SDS011;12318;51.262;7.066;2023-04-25T12:43:29;9.45;;;1.98;;
24161;SDS011;12318;51.262;7.066;2023-04-25T12:45:55;10.07;;;2.30;;
24161;SDS011;12318;51.262;7.066;2023-04-25T12:48:21;12.45;;;2.40;;
24161;SDS011;12318;51.262;7.066;2023-04-25T12:50:48;6.65;;;2.03;;
24161;SDS011;12318;51.262;7.066;2023-04-25T12:53:18;10.40;;;3.22;;
24161;SDS011;12318;51.262;7.066;2023-04-25T12:55:45;11.88;;;3.80;;
24161;SDS011;12318;51.262;7.066;2023-04-25T12:58:12;12.77;;;3.65;;
24161;SDS011;12318;51.262;7.066;2023-04-25T13:00:38;13.50;;;4.10;;
24161;SDS011;12318;51.262;7.066;2023-04-25T13:03:04;9.80;;;3.90;;
24161;SDS011;12318;51.262;7.066;2023-04-25T13:05:30;12.20;;;3.60;;
24161;SDS011;12318;51.262;7.066;2023-04-25T13:07:56;9.55;;;3.20;;
24161;SDS011;12318;51.262;7.066;2023-04-25T13:10:22;6.93;;;2.53;;
24161;SDS011;12318;51.262;7.066;2023-04-25T13:12:48;12.50;;;3.35;;
24161;SDS011;12318;51.262;7.066;2023-04-25T13:15:14;9.88;;;2.92;;
24161;SDS011;12318;51.262;7.066;2023-04-25T13:17:40;8.07;;;2.63;;
24161;SDS011;12318;51.262;7.066;2023-04-25T13:20:07;10.50;;;3.13;;
24161;SDS011;12318;51.262;7.066;2023-04-25T13:22:37;9.30;;;2.70;;
24161;SDS011;12318;51.262;7.066;2023-04-25T13:25:05;8.43;;;2.30;;
24161;SDS011;12318;51.262;7.066;2023-04-25T13:27:32;10.57;;;2.55;;
24161;SDS011;12318;51.262;7.066;2023-04-25T13:30:03;7.30;;;2.15;;
24161;SDS011;12318;51.262;7.066;2023-04-25T13:32:36;7.50;;;2.50;;
24161;SDS011;12318;51.262;7.066;2023-04-25T13:35:03;7.60;;;1.90;;
24161;SDS011;12318;51.262;7.066;2023-04-25T13:37:30;8.30;;;2.03;;
24161;SDS011;12318;51.262;7.066;2023-04-25T13:40:00;7.57;;;1.77;;
24161;SDS011;12318;51.262;7.066;2023-04-25T13:42:35;5.72;;;1.52;;
24161;SDS011;12318;51.262;7.066;2023-04-25T13:45:02;8.85;;;1.98;;
24161;SDS011;12318;51.262;7.066;2023-04-25T13:47:28;10.43;;;2.58;;
24161;SDS011;12318;51.262;7.066;2023-04-25T13:49:55;8.77;;;2.22;;
24161;SDS011;12318;51.262;7.066;2023-04-25T13:52:21;7.85;;;2.40;;
24161;SDS011;12318;51.262;7.066;2023-04-25T13:54:49;9.85;;;2.15;;
24161;SDS011;12318;51.262;7.066;2023-04-25T13:57:15;12.45;;;2.85;;
24161;SDS011;12318;51.262;7.066;2023-04-25T13:59:42;10.90;;;3.75;;
24161;SDS011;12318;51.262;7.066;2023-04-25T14:02:08;10.55;;;4.10;;
24161;SDS011;12318;51.262;7.066;2023-04-25T14:04:34;13.10;;;4.30;;
24161;SDS011;12318;51.262;7.066;2023-04-25T14:07:00;10.95;;;3.60;;
24161;SDS011;12318;51.262;7.066;2023-04-25T14:09:27;7.97;;;3.00;;
24161;SDS011;12318;51.262;7.066;2023-04-25T14:11:53;8.02;;;3.33;;
24161;SDS011;12318;51.262;7.066;2023-04-25T14:14:19;7.20;;;3.33;;
24161;SDS011;12318;51.262;7.066;2023-04-25T14:16:49;9.55;;;2.78;;
24161;SDS011;12318;51.262;7.066;2023-04-25T14:19:43;6.55;;;2.40;;
24161;SDS011;12318;51.262;7.066;2023-04-25T14:25:29;5.22;;;1.45;;
24161;SDS011;12318;51.262;7.066;2023-04-25T14:28:10;7.10;;;2.10;;
24161;SDS011;12318;51.262;7.066;2023-04-25T14:30:41;7.05;;;2.33;;
24161;SDS011;12318;51.262;7.066;2023-04-25T14:33:07;8.02;;;2.40;;
24161;SDS011;12318;51.262;7.066;2023-04-25T14:35:33;8.05;;;2.28;;
24161;SDS011;12318;51.262;7.066;2023-04-25T14:38:00;9.75;;;2.45;;
24161;SDS011;12318;51.262;7.066;2023-04-25T14:40:25;4.97;;;1.98;;
24161;SDS011;12318;51.262;7.066;2023-04-25T14:42:51;11.07;;;3.00;;
24161;SDS011;12318;51.262;7.066;2023-04-25T14:45:17;13.00;;;2.58;;
24161;SDS011;12318;51.262;7.066;2023-04-25T14:47:43;10.73;;;2.20;;
24161;SDS011;12318;51.262;7.066;2023-04-25T14:50:09;8.82;;;2.33;;
24161;SDS011;12318;51.262;7.066;2023-04-25T14:52:35;10.63;;;2.25;;
24161;SDS011;12318;51.262;7.066;2023-04-25T14:55:01;9.35;;;2.60;;
24161;SDS011;12318;51.262;7.066;2023-04-25T14:57:30;11.77;;;2.92;;
24161;SDS011;12318;51.262;7.066;2023-04-25T14:59:57;8.63;;;2.15;;
24161;SDS011;12318;51.262;7.066;2023-04-25T15:02:26;8.50;;;2.22;;
24161;SDS011;12318;51.262;7.066;2023-04-25T15:04:53;7.13;;;2.42;;
24161;SDS011;12318;51.262;7.066;2023-04-25T15:07:19;6.80;;;2.20;;
24161;SDS011;12318;51.262;7.066;2023-04-25T15:09:45;5.55;;;1.88;;
24161;SDS011;12318;51.262;7.066;2023-04-25T15:12:12;5.85;;;1.70;;
24161;SDS011;12318;51.262;7.066;2023-04-25T15:14:41;10.23;;;1.90;;
24161;SDS011;12318;51.262;7.066;2023-04-25T15:17:06;6.63;;;2.53;;
24161;SDS011;12318;51.262;7.066;2023-04-25T15:19:32;7.60;;;2.10;;
24161;SDS011;12318;51.262;7.066;2023-04-25T15:21:58;7.28;;;2.08;;
24161;SDS011;12318;51.262;7.066;2023-04-25T15:24:26;8.48;;;2.13;;
24161;SDS011;12318;51.262;7.066;2023-04-25T15:26:52;11.60;;;2.63;;
24161;SDS011;12318;51.262;7.066;2023-04-25T15:29:18;7.68;;;2.20;;
24161;SDS011;12318;51.262;7.066;2023-04-25T15:31:44;8.07;;;1.70;;
24161;SDS011;12318;51.262;7.066;2023-04-25T15:34:12;10.88;;;1.70;;
24161;SDS011;12318;51.262;7.066;2023-04-25T15:36:38;6.72;;;1.90;;
24161;SDS011;12318;51.262;7.066;2023-04-25T15:39:04;9.05;;;1.80;;
24161;SDS011;12318;51.262;7.066;2023-04-25T15:41:30;5.75;;;1.55;;
24161;SDS011;12318;51.262;7.066;2023-04-25T15:43:59;7.82;;;2.15;;
24161;SDS011;12318;51.262;7.066;2023-04-25T15:46:28;8.20;;;1.67;;
24161;SDS011;12318;51.262;7.066;2023-04-25T15:48:56;10.43;;;2.00;;
24161;SDS011;12318;51.262;7.066;2023-04-25T15:51:27;8.65;;;2.03;;
24161;SDS011;12318;51.262;7.066;2023-04-25T15:53:56;8.30;;;1.88;;
24161;SDS011;12318;51.262;7.066;2023-04-25T16:00:30;6.53;;;1.75;;
24161;SDS011;12318;51.262;7.066;2023-04-25T16:27:59;10.00;;;1.90;;
24161;SDS011;12318;51.262;7.066;2023-04-25T16:31:00;6.50;;;1.52;;